sensor_id;sensor_type;location;lat;lon;timestamp;temperature;humidity
34542;DHT22;20784;51.332;12.410;2022-07-29T00:01:24;19.20;99.90
34542;DHT22;20784;51.332;12.410;2022-07-29T00:04:03;19.20;99.90
34542;DHT22;20784;51.332;12.410;2022-07-29T00:06:31;19.20;99.90
34542;DHT22;20784;51.332;12.410;2022-07-29T00:09:20;19.20;99.90
34542;DHT22;20784;51.332;12.410;2022-07-29T00:12:03;19.10;99.90
34542;DHT22;20784;51.332;12.410;2022-07-29T00:18:01;19.10;99.90
34542;DHT22;20784;51.332;12.410;2022-07-29T00:20:53;19.00;99.90
34542;DHT22;20784;51.332;12.410;2022-07-29T00:23:58;19.00;99.90
34542;DHT22;20784;51.332;12.410;2022-07-29T00:26:36;19.10;99.90
34542;DHT22;20784;51.332;12.410;2022-07-29T00:29:13;18.90;99.90
34542;DHT22;20784;51.332;12.410;2022-07-29T00:31:49;18.90;99.90
34542;DHT22;20784;51.332;12.410;2022-07-29T00:34:15;18.90;99.90
34542;DHT22;20784;51.332;12.410;2022-07-29T00:36:59;18.90;99.90
34542;DHT22;20784;51.332;12.410;2022-07-29T00:39:25;18.80;99.90
34542;DHT22;20784;51.332;12.410;2022-07-29T00:41:51;18.90;99.90
34542;DHT22;20784;51.332;12.410;2022-07-29T00:44:20;18.80;99.90
34542;DHT22;20784;51.332;12.410;2022-07-29T00:46:48;18.70;99.90
34542;DHT22;20784;51.332;12.410;2022-07-29T00:49:19;18.80;99.90
34542;DHT22;20784;51.332;12.410;2022-07-29T00:51:51;18.80;99.90
34542;DHT22;20784;51.332;12.410;2022-07-29T00:54:41;18.80;99.90
34542;DHT22;20784;51.332;12.410;2022-07-29T00:57:18;18.80;99.90
34542;DHT22;20784;51.332;12.410;2022-07-29T00:59:47;18.80;99.90
34542;DHT22;20784;51.332;12.410;2022-07-29T01:02:15;18.80;99.90
34542;DHT22;20784;51.332;12.410;2022-07-29T01:04:51;18.80;99.90
34542;DHT22;20784;51.332;12.410;2022-07-29T01:10:31;18.80;99.90
34542;DHT22;20784;51.332;12.410;2022-07-29T01:13:17;18.80;99.90
34542;DHT22;20784;51.332;12.410;2022-07-29T01:16:13;18.70;99.90
34542;DHT22;20784;51.332;12.410;2022-07-29T01:18:49;18.70;99.90
34542;DHT22;20784;51.332;12.410;2022-07-29T01:21:52;18.70;99.90
34542;DHT22;20784;51.332;12.410;2022-07-29T01:31:04;18.50;99.90
34542;DHT22;20784;51.332;12.410;2022-07-29T01:34:03;18.50;99.90
34542;DHT22;20784;51.332;12.410;2022-07-29T01:36:50;18.40;99.90
34542;DHT22;20784;51.332;12.410;2022-07-29T01:39:43;18.40;99.90
34542;DHT22;20784;51.332;12.410;2022-07-29T01:42:48;18.40;99.90
34542;DHT22;20784;51.332;12.410;2022-07-29T01:45:37;18.40;99.90
34542;DHT22;20784;51.332;12.410;2022-07-29T01:48:43;18.30;99.90
34542;DHT22;20784;51.332;12.410;2022-07-29T01:51:33;18.30;99.90
34542;DHT22;20784;51.332;12.410;2022-07-29T01:54:30;18.30;99.90
34542;DHT22;20784;51.332;12.410;2022-07-29T01:56:58;18.20;99.90
34542;DHT22;20784;51.332;12.410;2022-07-29T01:59:25;18.30;99.90
34542;DHT22;20784;51.332;12.410;2022-07-29T02:01:59;18.20;99.90
34542;DHT22;20784;51.332;12.410;2022-07-29T02:04:35;18.20;99.90
34542;DHT22;20784;51.332;12.410;2022-07-29T02:07:09;18.10;99.90
34542;DHT22;20784;51.332;12.410;2022-07-29T02:09:37;18.10;99.90
34542;DHT22;20784;51.332;12.410;2022-07-29T02:12:16;18.10;99.90
34542;DHT22;20784;51.332;12.410;2022-07-29T02:14:50;18.10;99.90
34542;DHT22;20784;51.332;12.410;2022-07-29T02:17:28;18.10;99.90
34542;DHT22;20784;51.332;12.410;2022-07-29T02:20:09;18.00;99.90
34542;DHT22;20784;51.332;12.410;2022-07-29T02:23:12;18.10;99.90
34542;DHT22;20784;51.332;12.410;2022-07-29T02:25:59;18.00;99.90
34542;DHT22;20784;51.332;12.410;2022-07-29T02:35:17;18.00;99.90
34542;DHT22;20784;51.332;12.410;2022-07-29T02:38:02;17.90;99.90
34542;DHT22;20784;51.332;12.410;2022-07-29T02:40:59;17.90;99.90
34542;DHT22;20784;51.332;12.410;2022-07-29T02:44:01;17.90;99.90
34542;DHT22;20784;51.332;12.410;2022-07-29T02:47:34;17.90;99.90
34542;DHT22;20784;51.332;12.410;2022-07-29T02:53:56;17.70;99.90
34542;DHT22;20784;51.332;12.410;2022-07-29T02:56:33;17.80;99.90
34542;DHT22;20784;51.332;12.410;2022-07-29T02:59:05;17.70;99.90
34542;DHT22;20784;51.332;12.410;2022-07-29T03:01:44;17.80;99.90
34542;DHT22;20784;51.332;12.410;2022-07-29T03:07:45;17.90;99.90
34542;DHT22;20784;51.332;12.410;2022-07-29T03:13:46;17.90;99.90
34542;DHT22;20784;51.332;12.410;2022-07-29T03:16:25;17.90;99.90
34542;DHT22;20784;51.332;12.410;2022-07-29T03:28:58;17.70;99.90
34542;DHT22;20784;51.332;12.410;2022-07-29T03:32:07;17.70;99.90
34542;DHT22;20784;51.332;12.410;2022-07-29T03:34:56;17.70;99.90
34542;DHT22;20784;51.332;12.410;2022-07-29T03:37:30;17.70;99.90
34542;DHT22;20784;51.332;12.410;2022-07-29T03:40:03;17.70;99.90
34542;DHT22;20784;51.332;12.410;2022-07-29T03:42:56;17.70;99.90
34542;DHT22;20784;51.332;12.410;2022-07-29T03:45:28;17.50;99.90
34542;DHT22;20784;51.332;12.410;2022-07-29T03:48:08;17.50;99.90
34542;DHT22;20784;51.332;12.410;2022-07-29T03:57:31;17.40;99.90
34542;DHT22;20784;51.332;12.410;2022-07-29T04:00:07;17.40;99.90
34542;DHT22;20784;51.332;12.410;2022-07-29T04:02:56;17.50;99.90
34542;DHT22;20784;51.332;12.410;2022-07-29T04:05:25;17.50;99.90
34542;DHT22;20784;51.332;12.410;2022-07-29T04:08:28;17.50;99.90
34542;DHT22;20784;51.332;12.410;2022-07-29T04:11:17;17.50;99.90
34542;DHT22;20784;51.332;12.410;2022-07-29T04:13:45;17.50;99.90
34542;DHT22;20784;51.332;12.410;2022-07-29T04:19:47;17.50;99.90
34542;DHT22;20784;51.332;12.410;2022-07-29T04:22:06;17.50;99.90
34542;DHT22;20784;51.332;12.410;2022-07-29T04:24:38;17.60;99.90
34542;DHT22;20784;51.332;12.410;2022-07-29T04:27:03;17.60;99.90
34542;DHT22;20784;51.332;12.410;2022-07-29T04:29:35;17.70;99.90
34542;DHT22;20784;51.332;12.410;2022-07-29T04:32:04;17.60;99.90
34542;DHT22;20784;51.332;12.410;2022-07-29T04:34:38;17.70;99.90
34542;DHT22;20784;51.332;12.410;2022-07-29T04:37:06;17.70;99.90
34542;DHT22;20784;51.332;12.410;2022-07-29T04:39:35;17.70;99.90
34542;DHT22;20784;51.332;12.410;2022-07-29T04:42:23;17.70;99.90
34542;DHT22;20784;51.332;12.410;2022-07-29T04:45:24;17.80;99.90
34542;DHT22;20784;51.332;12.410;2022-07-29T04:48:15;17.70;99.90
34542;DHT22;20784;51.332;12.410;2022-07-29T04:51:04;17.70;99.90
34542;DHT22;20784;51.332;12.410;2022-07-29T04:53:35;17.70;99.90
34542;DHT22;20784;51.332;12.410;2022-07-29T04:56:05;17.70;99.90
34542;DHT22;20784;51.332;12.410;2022-07-29T04:58:39;17.80;99.90
34542;DHT22;20784;51.332;12.410;2022-07-29T05:01:10;17.90;99.90
34542;DHT22;20784;51.332;12.410;2022-07-29T05:03:48;17.90;99.90
34542;DHT22;20784;51.332;12.410;2022-07-29T05:06:31;17.90;99.90
34542;DHT22;20784;51.332;12.410;2022-07-29T05:09:28;17.90;99.90
34542;DHT22;20784;51.332;12.410;2022-07-29T05:11:53;17.90;99.90
34542;DHT22;20784;51.332;12.410;2022-07-29T05:14:21;18.00;99.90
34542;DHT22;20784;51.332;12.410;2022-07-29T05:16:47;18.00;99.90
34542;DHT22;20784;51.332;12.410;2022-07-29T05:19:17;18.10;99.90
34542;DHT22;20784;51.332;12.410;2022-07-29T05:21:45;18.20;99.90
34542;DHT22;20784;51.332;12.410;2022-07-29T05:24:11;18.20;99.90
34542;DHT22;20784;51.332;12.410;2022-07-29T05:26:37;18.30;99.90
34542;DHT22;20784;51.332;12.410;2022-07-29T05:29:05;18.20;99.90
34542;DHT22;20784;51.332;12.410;2022-07-29T05:31:30;18.40;99.90
34542;DHT22;20784;51.332;12.410;2022-07-29T05:34:16;18.50;99.90
34542;DHT22;20784;51.332;12.410;2022-07-29T05:36:51;18.50;99.90
34542;DHT22;20784;51.332;12.410;2022-07-29T05:39:19;18.60;99.90
34542;DHT22;20784;51.332;12.410;2022-07-29T05:41:47;18.60;99.90
34542;DHT22;20784;51.332;12.410;2022-07-29T05:44:13;18.60;99.90
34542;DHT22;20784;51.332;12.410;2022-07-29T05:46:40;18.70;99.90
34542;DHT22;20784;51.332;12.410;2022-07-29T05:49:05;18.70;99.90
34542;DHT22;20784;51.332;12.410;2022-07-29T05:51:49;18.70;99.90
34542;DHT22;20784;51.332;12.410;2022-07-29T05:54:17;18.70;99.90
34542;DHT22;20784;51.332;12.410;2022-07-29T05:56:53;18.70;99.90
34542;DHT22;20784;51.332;12.410;2022-07-29T05:59:21;18.60;99.90
34542;DHT22;20784;51.332;12.410;2022-07-29T06:02:00;18.70;99.90
34542;DHT22;20784;51.332;12.410;2022-07-29T06:21:56;18.90;99.90
34542;DHT22;20784;51.332;12.410;2022-07-29T06:38:34;19.10;99.90
34542;DHT22;20784;51.332;12.410;2022-07-29T06:41:34;19.10;99.90
34542;DHT22;20784;51.332;12.410;2022-07-29T06:56:55;19.50;99.90
34542;DHT22;20784;51.332;12.410;2022-07-29T06:59:21;19.70;99.90
34542;DHT22;20784;51.332;12.410;2022-07-29T07:02:24;19.80;99.90
34542;DHT22;20784;51.332;12.410;2022-07-29T07:04:53;20.00;99.90
34542;DHT22;20784;51.332;12.410;2022-07-29T07:07:39;20.10;99.90
34542;DHT22;20784;51.332;12.410;2022-07-29T07:19:56;20.80;99.90
34542;DHT22;20784;51.332;12.410;2022-07-29T07:22:44;20.80;99.90
34542;DHT22;20784;51.332;12.410;2022-07-29T07:28:59;21.00;99.90
34542;DHT22;20784;51.332;12.410;2022-07-29T07:31:34;21.10;99.90
34542;DHT22;20784;51.332;12.410;2022-07-29T07:34:16;21.30;99.90
34542;DHT22;20784;51.332;12.410;2022-07-29T07:42:06;21.90;99.90
34542;DHT22;20784;51.332;12.410;2022-07-29T07:45:13;22.00;99.90
34542;DHT22;20784;51.332;12.410;2022-07-29T07:51:27;22.40;99.90
34542;DHT22;20784;51.332;12.410;2022-07-29T07:57:38;22.80;99.90
34542;DHT22;20784;51.332;12.410;2022-07-29T08:00:15;22.90;99.90
34542;DHT22;20784;51.332;12.410;2022-07-29T08:03:02;23.00;99.90
34542;DHT22;20784;51.332;12.410;2022-07-29T08:05:37;23.20;99.90
34542;DHT22;20784;51.332;12.410;2022-07-29T08:17:14;24.30;99.90
34542;DHT22;20784;51.332;12.410;2022-07-29T08:20:09;24.50;99.90
34542;DHT22;20784;51.332;12.410;2022-07-29T08:22:53;24.70;99.90
34542;DHT22;20784;51.332;12.410;2022-07-29T08:29:00;24.90;99.90
34542;DHT22;20784;51.332;12.410;2022-07-29T08:31:26;25.10;99.90
34542;DHT22;20784;51.332;12.410;2022-07-29T08:34:18;25.40;99.90
34542;DHT22;20784;51.332;12.410;2022-07-29T08:37:06;25.70;99.90
34542;DHT22;20784;51.332;12.410;2022-07-29T08:40:11;25.80;99.90
34542;DHT22;20784;51.332;12.410;2022-07-29T09:02:46;28.20;99.90
34542;DHT22;20784;51.332;12.410;2022-07-29T09:05:51;28.10;99.90
34542;DHT22;20784;51.332;12.410;2022-07-29T09:08:57;28.00;99.90
34542;DHT22;20784;51.332;12.410;2022-07-29T09:14:57;28.00;99.90
34542;DHT22;20784;51.332;12.410;2022-07-29T09:17:48;28.10;99.90
34542;DHT22;20784;51.332;12.410;2022-07-29T09:20:30;28.20;99.90
34542;DHT22;20784;51.332;12.410;2022-07-29T09:26:28;28.60;99.90
34542;DHT22;20784;51.332;12.410;2022-07-29T09:29:21;28.80;99.50
34542;DHT22;20784;51.332;12.410;2022-07-29T09:35:36;28.70;98.70
34542;DHT22;20784;51.332;12.410;2022-07-29T09:38:40;28.90;98.70
34542;DHT22;20784;51.332;12.410;2022-07-29T09:41:10;29.00;98.50
34542;DHT22;20784;51.332;12.410;2022-07-29T09:49:59;29.20;97.90
34542;DHT22;20784;51.332;12.410;2022-07-29T09:53:13;29.70;97.40
34542;DHT22;20784;51.332;12.410;2022-07-29T09:58:46;30.20;96.30
34542;DHT22;20784;51.332;12.410;2022-07-29T10:15:33;31.20;93.50
34542;DHT22;20784;51.332;12.410;2022-07-29T10:25:11;31.20;92.40
34542;DHT22;20784;51.332;12.410;2022-07-29T10:41:21;31.40;90.90
34542;DHT22;20784;51.332;12.410;2022-07-29T10:51:03;31.20;89.20
34542;DHT22;20784;51.332;12.410;2022-07-29T11:50:37;33.30;80.50
34542;DHT22;20784;51.332;12.410;2022-07-29T12:42:31;33.60;78.20
34542;DHT22;20784;51.332;12.410;2022-07-29T12:58:47;32.40;81.40
34542;DHT22;20784;51.332;12.410;2022-07-29T13:01:17;32.70;81.60
34542;DHT22;20784;51.332;12.410;2022-07-29T13:04:10;32.70;81.30
34542;DHT22;20784;51.332;12.410;2022-07-29T13:07:06;32.80;80.70
34542;DHT22;20784;51.332;12.410;2022-07-29T13:26:28;31.30;80.90
34542;DHT22;20784;51.332;12.410;2022-07-29T13:28:56;31.10;81.70
34542;DHT22;20784;51.332;12.410;2022-07-29T13:32:20;31.10;81.70
34542;DHT22;20784;51.332;12.410;2022-07-29T13:35:31;31.10;81.90
34542;DHT22;20784;51.332;12.410;2022-07-29T13:38:02;30.90;81.90
34542;DHT22;20784;51.332;12.410;2022-07-29T14:02:47;30.50;82.80
34542;DHT22;20784;51.332;12.410;2022-07-29T14:21:53;30.40;84.00
34542;DHT22;20784;51.332;12.410;2022-07-29T14:25:03;30.50;84.10
34542;DHT22;20784;51.332;12.410;2022-07-29T14:28:10;30.50;84.40
34542;DHT22;20784;51.332;12.410;2022-07-29T14:34:17;30.40;85.70
34542;DHT22;20784;51.332;12.410;2022-07-29T14:40:11;30.40;84.90
34542;DHT22;20784;51.332;12.410;2022-07-29T14:43:03;30.30;84.70
34542;DHT22;20784;51.332;12.410;2022-07-29T14:45:56;30.20;85.70
34542;DHT22;20784;51.332;12.410;2022-07-29T14:49:13;30.00;85.90
34542;DHT22;20784;51.332;12.410;2022-07-29T14:55:05;29.90;87.50
34542;DHT22;20784;51.332;12.410;2022-07-29T15:00:37;30.10;87.00
34542;DHT22;20784;51.332;12.410;2022-07-29T15:03:23;30.10;84.90
34542;DHT22;20784;51.332;12.410;2022-07-29T15:06:16;30.00;85.00
34542;DHT22;20784;51.332;12.410;2022-07-29T15:09:03;29.90;85.90
34542;DHT22;20784;51.332;12.410;2022-07-29T15:11:57;29.90;86.30
34542;DHT22;20784;51.332;12.410;2022-07-29T15:14:40;29.90;86.80
34542;DHT22;20784;51.332;12.410;2022-07-29T15:17:24;29.90;87.10
34542;DHT22;20784;51.332;12.410;2022-07-29T15:20:04;29.90;87.30
34542;DHT22;20784;51.332;12.410;2022-07-29T15:22:50;29.90;87.50
34542;DHT22;20784;51.332;12.410;2022-07-29T15:25:28;29.80;87.20
34542;DHT22;20784;51.332;12.410;2022-07-29T15:27:59;29.70;87.90
34542;DHT22;20784;51.332;12.410;2022-07-29T15:30:50;29.70;87.80
34542;DHT22;20784;51.332;12.410;2022-07-29T15:33:18;29.60;87.30
34542;DHT22;20784;51.332;12.410;2022-07-29T15:36:16;29.60;87.80
34542;DHT22;20784;51.332;12.410;2022-07-29T15:39:24;29.60;87.80
34542;DHT22;20784;51.332;12.410;2022-07-29T15:42:08;29.60;88.00
34542;DHT22;20784;51.332;12.410;2022-07-29T15:44:50;29.60;88.60
34542;DHT22;20784;51.332;12.410;2022-07-29T15:48:15;29.40;87.10
34542;DHT22;20784;51.332;12.410;2022-07-29T15:51:16;28.80;92.60
34542;DHT22;20784;51.332;12.410;2022-07-29T15:53:41;28.20;95.00
34542;DHT22;20784;51.332;12.410;2022-07-29T15:56:45;27.30;97.00
34542;DHT22;20784;51.332;12.410;2022-07-29T16:02:52;26.30;99.90
34542;DHT22;20784;51.332;12.410;2022-07-29T16:05:41;26.10;99.90
34542;DHT22;20784;51.332;12.410;2022-07-29T16:08:28;26.00;99.90
34542;DHT22;20784;51.332;12.410;2022-07-29T16:15:08;25.80;99.90
34542;DHT22;20784;51.332;12.410;2022-07-29T16:20:02;25.60;99.90
34542;DHT22;20784;51.332;12.410;2022-07-29T16:22:48;25.40;99.90
34542;DHT22;20784;51.332;12.410;2022-07-29T16:25:17;25.40;99.90
34542;DHT22;20784;51.332;12.410;2022-07-29T16:27:54;25.30;99.90
34542;DHT22;20784;51.332;12.410;2022-07-29T16:30:22;25.40;99.90
34542;DHT22;20784;51.332;12.410;2022-07-29T16:32:54;25.40;99.90
34542;DHT22;20784;51.332;12.410;2022-07-29T16:35:31;25.50;99.90
34542;DHT22;20784;51.332;12.410;2022-07-29T16:38:27;25.50;99.90
34542;DHT22;20784;51.332;12.410;2022-07-29T16:41:26;25.50;99.90
34542;DHT22;20784;51.332;12.410;2022-07-29T16:44:30;25.50;99.90
34542;DHT22;20784;51.332;12.410;2022-07-29T16:47:12;25.50;99.90
34542;DHT22;20784;51.332;12.410;2022-07-29T16:49:46;25.50;99.90
34542;DHT22;20784;51.332;12.410;2022-07-29T16:52:25;25.50;99.90
34542;DHT22;20784;51.332;12.410;2022-07-29T16:55:12;25.50;99.90
34542;DHT22;20784;51.332;12.410;2022-07-29T16:57:38;25.60;99.90
34542;DHT22;20784;51.332;12.410;2022-07-29T17:00:22;25.60;99.90
34542;DHT22;20784;51.332;12.410;2022-07-29T17:03:02;25.50;99.90
34542;DHT22;20784;51.332;12.410;2022-07-29T17:05:32;25.40;99.90
34542;DHT22;20784;51.332;12.410;2022-07-29T17:08:20;25.60;99.90
34542;DHT22;20784;51.332;12.410;2022-07-29T17:11:25;25.60;99.90
34542;DHT22;20784;51.332;12.410;2022-07-29T17:13:54;25.80;99.90
34542;DHT22;20784;51.332;12.410;2022-07-29T17:16:35;25.80;99.90
34542;DHT22;20784;51.332;12.410;2022-07-29T17:19:11;25.90;99.90
34542;DHT22;20784;51.332;12.410;2022-07-29T17:21:37;26.00;99.90
34542;DHT22;20784;51.332;12.410;2022-07-29T17:24:03;26.00;99.90
34542;DHT22;20784;51.332;12.410;2022-07-29T17:26:34;26.00;99.90
34542;DHT22;20784;51.332;12.410;2022-07-29T17:29:02;26.00;99.90
34542;DHT22;20784;51.332;12.410;2022-07-29T17:31:28;25.80;99.90
34542;DHT22;20784;51.332;12.410;2022-07-29T17:34:04;25.80;99.90
34542;DHT22;20784;51.332;12.410;2022-07-29T17:39:31;26.00;99.90
34542;DHT22;20784;51.332;12.410;2022-07-29T17:42:05;26.00;99.90
34542;DHT22;20784;51.332;12.410;2022-07-29T17:44:33;26.00;99.90
34542;DHT22;20784;51.332;12.410;2022-07-29T17:47:19;26.00;99.90
34542;DHT22;20784;51.332;12.410;2022-07-29T17:49:48;25.90;99.90
34542;DHT22;20784;51.332;12.410;2022-07-29T17:52:28;25.90;99.90
34542;DHT22;20784;51.332;12.410;2022-07-29T17:55:04;25.90;99.90
34542;DHT22;20784;51.332;12.410;2022-07-29T17:57:43;25.90;99.90
34542;DHT22;20784;51.332;12.410;2022-07-29T18:00:15;25.90;99.90
34542;DHT22;20784;51.332;12.410;2022-07-29T18:02:44;25.90;99.90
34542;DHT22;20784;51.332;12.410;2022-07-29T18:05:09;25.90;99.90
34542;DHT22;20784;51.332;12.410;2022-07-29T18:07:41;25.80;99.90
34542;DHT22;20784;51.332;12.410;2022-07-29T18:10:36;25.90;99.90
34542;DHT22;20784;51.332;12.410;2022-07-29T18:13:05;25.80;99.90
34542;DHT22;20784;51.332;12.410;2022-07-29T18:15:39;25.80;99.90
34542;DHT22;20784;51.332;12.410;2022-07-29T18:18:07;25.70;99.90
34542;DHT22;20784;51.332;12.410;2022-07-29T18:20:36;25.70;99.90
34542;DHT22;20784;51.332;12.410;2022-07-29T18:23:11;25.60;99.90
34542;DHT22;20784;51.332;12.410;2022-07-29T18:25:37;25.60;99.90
34542;DHT22;20784;51.332;12.410;2022-07-29T18:28:14;25.50;99.90
34542;DHT22;20784;51.332;12.410;2022-07-29T18:30:46;25.50;99.90
34542;DHT22;20784;51.332;12.410;2022-07-29T18:33:22;25.50;99.90
34542;DHT22;20784;51.332;12.410;2022-07-29T18:35:54;25.40;99.90
34542;DHT22;20784;51.332;12.410;2022-07-29T18:38:28;25.40;99.90
34542;DHT22;20784;51.332;12.410;2022-07-29T18:40:57;25.30;99.90
34542;DHT22;20784;51.332;12.410;2022-07-29T18:43:22;25.20;99.90
34542;DHT22;20784;51.332;12.410;2022-07-29T18:45:55;25.20;99.90
34542;DHT22;20784;51.332;12.410;2022-07-29T18:48:53;25.20;99.90
34542;DHT22;20784;51.332;12.410;2022-07-29T18:51:26;25.10;99.90
34542;DHT22;20784;51.332;12.410;2022-07-29T18:53:55;25.10;99.90
34542;DHT22;20784;51.332;12.410;2022-07-29T18:56:30;25.00;99.90
34542;DHT22;20784;51.332;12.410;2022-07-29T18:59:18;24.90;99.90
34542;DHT22;20784;51.332;12.410;2022-07-29T19:01:55;24.90;99.90
34542;DHT22;20784;51.332;12.410;2022-07-29T19:04:27;24.80;99.90
34542;DHT22;20784;51.332;12.410;2022-07-29T19:07:10;24.80;99.90
34542;DHT22;20784;51.332;12.410;2022-07-29T19:09:58;24.90;99.90
34542;DHT22;20784;51.332;12.410;2022-07-29T19:12:42;24.90;99.90
34542;DHT22;20784;51.332;12.410;2022-07-29T19:15:08;24.80;99.90
34542;DHT22;20784;51.332;12.410;2022-07-29T19:17:38;24.90;99.90
34542;DHT22;20784;51.332;12.410;2022-07-29T19:20:10;24.80;99.90
34542;DHT22;20784;51.332;12.410;2022-07-29T19:22:43;24.70;99.90
34542;DHT22;20784;51.332;12.410;2022-07-29T19:28:55;24.60;99.90
34542;DHT22;20784;51.332;12.410;2022-07-29T19:31:39;24.70;99.90
34542;DHT22;20784;51.332;12.410;2022-07-29T19:37:13;24.60;99.90
34542;DHT22;20784;51.332;12.410;2022-07-29T19:40:52;24.50;99.90
34542;DHT22;20784;51.332;12.410;2022-07-29T19:46:52;24.50;99.90
34542;DHT22;20784;51.332;12.410;2022-07-29T19:49:56;24.40;99.90
34542;DHT22;20784;51.332;12.410;2022-07-29T19:52:50;24.40;99.90
34542;DHT22;20784;51.332;12.410;2022-07-29T19:55:43;24.30;99.90
34542;DHT22;20784;51.332;12.410;2022-07-29T19:58:14;24.40;99.90
34542;DHT22;20784;51.332;12.410;2022-07-29T20:01:00;24.40;99.90
34542;DHT22;20784;51.332;12.410;2022-07-29T20:03:37;24.30;99.90
34542;DHT22;20784;51.332;12.410;2022-07-29T20:06:09;24.20;99.90
34542;DHT22;20784;51.332;12.410;2022-07-29T20:08:52;24.20;99.90
34542;DHT22;20784;51.332;12.410;2022-07-29T20:11:28;24.10;99.90
34542;DHT22;20784;51.332;12.410;2022-07-29T20:13:54;24.10;99.90
34542;DHT22;20784;51.332;12.410;2022-07-29T20:16:25;24.10;99.90
34542;DHT22;20784;51.332;12.410;2022-07-29T20:18:53;24.10;99.90
34542;DHT22;20784;51.332;12.410;2022-07-29T20:21:21;24.10;99.90
34542;DHT22;20784;51.332;12.410;2022-07-29T20:23:51;24.10;99.90
34542;DHT22;20784;51.332;12.410;2022-07-29T20:29:38;24.30;99.90
34542;DHT22;20784;51.332;12.410;2022-07-29T20:32:08;24.10;99.90
34542;DHT22;20784;51.332;12.410;2022-07-29T20:34:49;24.10;99.90
34542;DHT22;20784;51.332;12.410;2022-07-29T20:37:18;24.10;99.90
34542;DHT22;20784;51.332;12.410;2022-07-29T20:39:45;24.20;99.90
34542;DHT22;20784;51.332;12.410;2022-07-29T20:42:16;24.20;99.90
34542;DHT22;20784;51.332;12.410;2022-07-29T20:44:42;24.20;99.90
34542;DHT22;20784;51.332;12.410;2022-07-29T20:47:20;24.10;99.90
34542;DHT22;20784;51.332;12.410;2022-07-29T20:49:52;24.10;99.90
34542;DHT22;20784;51.332;12.410;2022-07-29T20:52:20;24.20;99.90
34542;DHT22;20784;51.332;12.410;2022-07-29T20:54:51;24.10;99.90
34542;DHT22;20784;51.332;12.410;2022-07-29T20:57:20;24.00;99.90
34542;DHT22;20784;51.332;12.410;2022-07-29T20:59:55;24.00;99.90
34542;DHT22;20784;51.332;12.410;2022-07-29T21:02:21;24.00;99.90
34542;DHT22;20784;51.332;12.410;2022-07-29T21:04:49;24.00;99.90
34542;DHT22;20784;51.332;12.410;2022-07-29T21:07:18;23.80;99.90
34542;DHT22;20784;51.332;12.410;2022-07-29T21:09:46;23.70;99.90
34542;DHT22;20784;51.332;12.410;2022-07-29T21:12:15;23.60;99.90
34542;DHT22;20784;51.332;12.410;2022-07-29T21:14:43;23.50;99.90
34542;DHT22;20784;51.332;12.410;2022-07-29T21:17:13;23.40;99.90
34542;DHT22;20784;51.332;12.410;2022-07-29T21:19:45;23.40;99.90
34542;DHT22;20784;51.332;12.410;2022-07-29T21:22:11;23.40;99.90
34542;DHT22;20784;51.332;12.410;2022-07-29T21:24:43;23.40;99.90
34542;DHT22;20784;51.332;12.410;2022-07-29T21:27:18;23.30;99.90
34542;DHT22;20784;51.332;12.410;2022-07-29T21:30:06;23.30;99.90
34542;DHT22;20784;51.332;12.410;2022-07-29T21:32:32;23.20;99.90
34542;DHT22;20784;51.332;12.410;2022-07-29T21:35:17;23.10;99.90
34542;DHT22;20784;51.332;12.410;2022-07-29T21:37:52;23.10;99.90
34542;DHT22;20784;51.332;12.410;2022-07-29T21:40:23;23.00;99.90
34542;DHT22;20784;51.332;12.410;2022-07-29T21:42:51;23.00;99.90
34542;DHT22;20784;51.332;12.410;2022-07-29T21:45:22;22.80;99.90
34542;DHT22;20784;51.332;12.410;2022-07-29T21:47:51;22.70;99.90
34542;DHT22;20784;51.332;12.410;2022-07-29T21:50:19;22.50;99.90
34542;DHT22;20784;51.332;12.410;2022-07-29T21:53:05;22.40;99.90
34542;DHT22;20784;51.332;12.410;2022-07-29T21:59:06;22.20;99.90
34542;DHT22;20784;51.332;12.410;2022-07-29T22:01:40;22.10;99.90
34542;DHT22;20784;51.332;12.410;2022-07-29T22:04:11;22.00;99.90
34542;DHT22;20784;51.332;12.410;2022-07-29T22:06:54;21.80;99.90
34542;DHT22;20784;51.332;12.410;2022-07-29T22:09:23;21.60;99.90
34542;DHT22;20784;51.332;12.410;2022-07-29T22:11:49;21.40;99.90
34542;DHT22;20784;51.332;12.410;2022-07-29T22:14:33;21.40;99.90
34542;DHT22;20784;51.332;12.410;2022-07-29T22:17:01;21.30;99.90
34542;DHT22;20784;51.332;12.410;2022-07-29T22:19:30;21.20;99.90
34542;DHT22;20784;51.332;12.410;2022-07-29T22:22:01;21.20;99.90
34542;DHT22;20784;51.332;12.410;2022-07-29T22:24:27;20.90;99.90
34542;DHT22;20784;51.332;12.410;2022-07-29T22:26:58;20.80;99.90
34542;DHT22;20784;51.332;12.410;2022-07-29T22:29:24;20.80;99.90
34542;DHT22;20784;51.332;12.410;2022-07-29T22:31:52;20.80;99.90
34542;DHT22;20784;51.332;12.410;2022-07-29T22:34:25;20.90;99.90
34542;DHT22;20784;51.332;12.410;2022-07-29T22:37:03;20.80;99.90
34542;DHT22;20784;51.332;12.410;2022-07-29T22:39:39;20.70;99.90
34542;DHT22;20784;51.332;12.410;2022-07-29T22:42:04;20.80;99.90
34542;DHT22;20784;51.332;12.410;2022-07-29T22:44:30;20.80;99.90
34542;DHT22;20784;51.332;12.410;2022-07-29T22:47:02;20.80;99.90
34542;DHT22;20784;51.332;12.410;2022-07-29T22:49:31;20.90;99.90
34542;DHT22;20784;51.332;12.410;2022-07-29T22:51:57;20.90;99.90
34542;DHT22;20784;51.332;12.410;2022-07-29T22:54:23;20.80;99.90
34542;DHT22;20784;51.332;12.410;2022-07-29T22:57:21;20.80;99.90
34542;DHT22;20784;51.332;12.410;2022-07-29T22:59:50;20.80;99.90
34542;DHT22;20784;51.332;12.410;2022-07-29T23:02:16;20.80;99.90
34542;DHT22;20784;51.332;12.410;2022-07-29T23:04:47;20.80;99.90
34542;DHT22;20784;51.332;12.410;2022-07-29T23:07:12;20.80;99.90
34542;DHT22;20784;51.332;12.410;2022-07-29T23:09:40;20.80;99.90
34542;DHT22;20784;51.332;12.410;2022-07-29T23:12:06;20.80;99.90
34542;DHT22;20784;51.332;12.410;2022-07-29T23:14:37;20.80;99.90
34542;DHT22;20784;51.332;12.410;2022-07-29T23:17:03;20.80;99.90
34542;DHT22;20784;51.332;12.410;2022-07-29T23:19:31;20.70;99.90
34542;DHT22;20784;51.332;12.410;2022-07-29T23:21:57;20.80;99.90
34542;DHT22;20784;51.332;12.410;2022-07-29T23:24:26;20.70;99.90
34542;DHT22;20784;51.332;12.410;2022-07-29T23:26:57;20.70;99.90
34542;DHT22;20784;51.332;12.410;2022-07-29T23:29:28;20.70;99.90
34542;DHT22;20784;51.332;12.410;2022-07-29T23:32:19;20.70;99.90
34542;DHT22;20784;51.332;12.410;2022-07-29T23:34:48;20.70;99.90
34542;DHT22;20784;51.332;12.410;2022-07-29T23:37:13;20.70;99.90